sensor_id;sensor_type;location;lat;lon;timestamp;P1;durP1;ratioP1;P2;durP2;ratioP2
14167;SDS011;7163;50.626;12.922;2024-03-08T00:03:35;78.00;;;32.30;;
14167;SDS011;7163;50.626;12.922;2024-03-08T00:08:35;73.57;;;33.17;;
14167;SDS011;7163;50.626;12.922;2024-03-08T00:13:36;76.65;;;34.40;;
14167;SDS011;7163;50.626;12.922;2024-03-08T00:18:36;79.10;;;33.43;;
14167;SDS011;7163;50.626;12.922;2024-03-08T00:23:39;84.50;;;35.93;;
14167;SDS011;7163;50.626;12.922;2024-03-08T00:28:40;87.13;;;34.77;;
14167;SDS011;7163;50.626;12.922;2024-03-08T00:33:41;81.63;;;34.17;;
14167;SDS011;7163;50.626;12.922;2024-03-08T00:38:43;84.20;;;35.47;;
14167;SDS011;7163;50.626;12.922;2024-03-08T00:43:44;77.37;;;32.80;;
14167;SDS011;7163;50.626;12.922;2024-03-08T00:48:44;82.80;;;32.07;;
14167;SDS011;7163;50.626;12.922;2024-03-08T00:53:47;76.67;;;32.33;;
14167;SDS011;7163;50.626;12.922;2024-03-08T00:58:47;80.83;;;32.27;;
14167;SDS011;7163;50.626;12.922;2024-03-08T01:03:48;76.63;;;32.57;;
14167;SDS011;7163;50.626;12.922;2024-03-08T01:08:49;79.20;;;31.83;;
14167;SDS011;7163;50.626;12.922;2024-03-08T01:13:54;73.77;;;31.47;;
14167;SDS011;7163;50.626;12.922;2024-03-08T01:18:54;72.27;;;29.60;;
14167;SDS011;7163;50.626;12.922;2024-03-08T01:23:55;75.27;;;34.13;;
14167;SDS011;7163;50.626;12.922;2024-03-08T01:28:55;79.80;;;32.50;;
14167;SDS011;7163;50.626;12.922;2024-03-08T01:33:59;73.83;;;31.37;;
14167;SDS011;7163;50.626;12.922;2024-03-08T01:38:59;79.57;;;33.10;;
14167;SDS011;7163;50.626;12.922;2024-03-08T01:44:00;72.20;;;31.07;;
14167;SDS011;7163;50.626;12.922;2024-03-08T01:49:00;72.50;;;30.20;;
14167;SDS011;7163;50.626;12.922;2024-03-08T01:54:01;77.80;;;28.97;;
14167;SDS011;7163;50.626;12.922;2024-03-08T01:59:02;75.77;;;31.23;;
14167;SDS011;7163;50.626;12.922;2024-03-08T02:04:02;75.73;;;30.97;;
14167;SDS011;7163;50.626;12.922;2024-03-08T02:09:03;76.27;;;29.20;;
14167;SDS011;7163;50.626;12.922;2024-03-08T02:14:06;71.60;;;29.50;;
14167;SDS011;7163;50.626;12.922;2024-03-08T02:19:09;69.13;;;29.70;;
14167;SDS011;7163;50.626;12.922;2024-03-08T02:24:12;74.57;;;30.20;;
14167;SDS011;7163;50.626;12.922;2024-03-08T02:29:12;79.73;;;31.53;;
14167;SDS011;7163;50.626;12.922;2024-03-08T02:34:14;89.43;;;33.20;;
14167;SDS011;7163;50.626;12.922;2024-03-08T02:39:15;80.28;;;32.42;;
14167;SDS011;7163;50.626;12.922;2024-03-08T02:44:16;84.00;;;31.57;;
14167;SDS011;7163;50.626;12.922;2024-03-08T02:49:16;83.63;;;30.70;;
14167;SDS011;7163;50.626;12.922;2024-03-08T02:54:17;93.67;;;33.83;;
14167;SDS011;7163;50.626;12.922;2024-03-08T02:59:17;83.10;;;33.40;;
14167;SDS011;7163;50.626;12.922;2024-03-08T03:04:17;86.25;;;32.25;;
14167;SDS011;7163;50.626;12.922;2024-03-08T03:09:21;80.53;;;31.60;;
14167;SDS011;7163;50.626;12.922;2024-03-08T03:14:30;99.43;;;33.43;;
14167;SDS011;7163;50.626;12.922;2024-03-08T03:19:30;99.38;;;35.90;;
14167;SDS011;7163;50.626;12.922;2024-03-08T03:24:32;98.63;;;34.70;;
14167;SDS011;7163;50.626;12.922;2024-03-08T03:29:32;102.50;;;34.33;;
14167;SDS011;7163;50.626;12.922;2024-03-08T03:34:33;83.73;;;31.23;;
14167;SDS011;7163;50.626;12.922;2024-03-08T03:39:36;102.87;;;33.83;;
14167;SDS011;7163;50.626;12.922;2024-03-08T03:44:48;85.17;;;32.00;;
14167;SDS011;7163;50.626;12.922;2024-03-08T03:49:48;89.10;;;30.53;;
14167;SDS011;7163;50.626;12.922;2024-03-08T03:54:48;83.67;;;31.63;;
14167;SDS011;7163;50.626;12.922;2024-03-08T03:59:51;78.20;;;31.53;;
14167;SDS011;7163;50.626;12.922;2024-03-08T04:04:52;84.65;;;29.90;;
14167;SDS011;7163;50.626;12.922;2024-03-08T04:09:52;85.47;;;31.70;;
14167;SDS011;7163;50.626;12.922;2024-03-08T04:14:53;88.10;;;34.08;;
14167;SDS011;7163;50.626;12.922;2024-03-08T04:19:53;85.97;;;32.47;;
14167;SDS011;7163;50.626;12.922;2024-03-08T04:24:54;86.07;;;32.60;;
14167;SDS011;7163;50.626;12.922;2024-03-08T04:29:55;78.73;;;30.20;;
14167;SDS011;7163;50.626;12.922;2024-03-08T04:34:57;83.60;;;33.00;;
14167;SDS011;7163;50.626;12.922;2024-03-08T04:39:57;95.65;;;34.15;;
14167;SDS011;7163;50.626;12.922;2024-03-08T04:44:57;98.90;;;37.20;;
14167;SDS011;7163;50.626;12.922;2024-03-08T04:49:58;113.07;;;36.00;;
14167;SDS011;7163;50.626;12.922;2024-03-08T04:55:02;99.03;;;33.10;;
14167;SDS011;7163;50.626;12.922;2024-03-08T05:00:05;93.70;;;36.47;;
14167;SDS011;7163;50.626;12.922;2024-03-08T05:05:11;120.00;;;39.03;;
14167;SDS011;7163;50.626;12.922;2024-03-08T05:10:12;108.90;;;37.97;;
14167;SDS011;7163;50.626;12.922;2024-03-08T05:15:17;107.23;;;40.23;;
14167;SDS011;7163;50.626;12.922;2024-03-08T05:20:18;125.23;;;43.17;;
14167;SDS011;7163;50.626;12.922;2024-03-08T05:25:19;118.70;;;42.13;;
14167;SDS011;7163;50.626;12.922;2024-03-08T05:30:20;115.17;;;44.07;;
14167;SDS011;7163;50.626;12.922;2024-03-08T05:35:21;119.57;;;45.10;;
14167;SDS011;7163;50.626;12.922;2024-03-08T05:40:22;122.53;;;44.67;;
14167;SDS011;7163;50.626;12.922;2024-03-08T05:45:22;111.67;;;43.87;;
14167;SDS011;7163;50.626;12.922;2024-03-08T05:50:25;116.47;;;44.17;;
14167;SDS011;7163;50.626;12.922;2024-03-08T05:55:25;121.73;;;45.07;;
14167;SDS011;7163;50.626;12.922;2024-03-08T06:00:28;125.77;;;46.10;;
14167;SDS011;7163;50.626;12.922;2024-03-08T06:05:28;117.70;;;44.87;;
14167;SDS011;7163;50.626;12.922;2024-03-08T06:10:29;119.53;;;45.13;;
14167;SDS011;7163;50.626;12.922;2024-03-08T06:15:32;125.97;;;45.80;;
14167;SDS011;7163;50.626;12.922;2024-03-08T06:20:38;123.70;;;45.03;;
14167;SDS011;7163;50.626;12.922;2024-03-08T06:25:38;117.83;;;44.53;;
14167;SDS011;7163;50.626;12.922;2024-03-08T06:30:39;120.33;;;43.27;;
14167;SDS011;7163;50.626;12.922;2024-03-08T06:35:40;108.57;;;43.27;;
14167;SDS011;7163;50.626;12.922;2024-03-08T06:40:40;103.77;;;41.33;;
14167;SDS011;7163;50.626;12.922;2024-03-08T06:45:41;98.17;;;41.07;;
14167;SDS011;7163;50.626;12.922;2024-03-08T06:50:42;102.90;;;39.43;;
14167;SDS011;7163;50.626;12.922;2024-03-08T06:55:42;90.40;;;37.43;;
14167;SDS011;7163;50.626;12.922;2024-03-08T07:00:44;77.40;;;34.50;;
14167;SDS011;7163;50.626;12.922;2024-03-08T07:05:45;74.93;;;33.03;;
14167;SDS011;7163;50.626;12.922;2024-03-08T07:10:45;65.43;;;31.33;;
14167;SDS011;7163;50.626;12.922;2024-03-08T07:15:49;66.60;;;31.30;;
14167;SDS011;7163;50.626;12.922;2024-03-08T07:20:49;60.27;;;28.93;;
14167;SDS011;7163;50.626;12.922;2024-03-08T07:25:54;62.73;;;29.50;;
14167;SDS011;7163;50.626;12.922;2024-03-08T07:31:00;62.80;;;28.43;;
14167;SDS011;7163;50.626;12.922;2024-03-08T07:36:17;49.70;;;24.20;;
14167;SDS011;7163;50.626;12.922;2024-03-08T07:41:18;49.93;;;23.93;;
14167;SDS011;7163;50.626;12.922;2024-03-08T07:46:21;44.03;;;23.27;;
14167;SDS011;7163;50.626;12.922;2024-03-08T07:51:21;43.10;;;22.60;;
14167;SDS011;7163;50.626;12.922;2024-03-08T07:56:22;41.37;;;21.07;;
14167;SDS011;7163;50.626;12.922;2024-03-08T08:01:22;46.67;;;22.93;;
14167;SDS011;7163;50.626;12.922;2024-03-08T08:06:23;48.73;;;20.57;;
14167;SDS011;7163;50.626;12.922;2024-03-08T08:11:27;40.13;;;21.73;;
14167;SDS011;7163;50.626;12.922;2024-03-08T08:16:28;45.77;;;21.33;;
14167;SDS011;7163;50.626;12.922;2024-03-08T08:21:29;39.40;;;19.87;;
14167;SDS011;7163;50.626;12.922;2024-03-08T08:26:29;38.97;;;18.53;;
14167;SDS011;7163;50.626;12.922;2024-03-08T08:31:30;52.33;;;21.10;;
14167;SDS011;7163;50.626;12.922;2024-03-08T08:36:32;42.50;;;21.03;;
14167;SDS011;7163;50.626;12.922;2024-03-08T08:41:32;39.87;;;20.70;;
14167;SDS011;7163;50.626;12.922;2024-03-08T08:46:32;39.95;;;20.60;;
14167;SDS011;7163;50.626;12.922;2024-03-08T08:51:33;43.37;;;21.00;;
14167;SDS011;7163;50.626;12.922;2024-03-08T08:56:34;36.63;;;20.87;;
14167;SDS011;7163;50.626;12.922;2024-03-08T09:01:34;36.93;;;20.17;;
14167;SDS011;7163;50.626;12.922;2024-03-08T09:06:34;37.90;;;20.90;;
14167;SDS011;7163;50.626;12.922;2024-03-08T09:11:36;36.93;;;20.53;;
14167;SDS011;7163;50.626;12.922;2024-03-08T09:16:36;35.43;;;19.80;;
14167;SDS011;7163;50.626;12.922;2024-03-08T09:21:37;35.40;;;20.13;;
14167;SDS011;7163;50.626;12.922;2024-03-08T09:26:39;40.83;;;22.40;;
14167;SDS011;7163;50.626;12.922;2024-03-08T09:31:42;38.77;;;19.93;;
14167;SDS011;7163;50.626;12.922;2024-03-08T09:36:42;33.83;;;20.23;;
14167;SDS011;7163;50.626;12.922;2024-03-08T09:41:43;31.20;;;18.60;;
14167;SDS011;7163;50.626;12.922;2024-03-08T09:46:46;33.97;;;19.53;;
14167;SDS011;7163;50.626;12.922;2024-03-08T09:51:51;32.63;;;18.33;;
14167;SDS011;7163;50.626;12.922;2024-03-08T09:56:52;32.70;;;19.73;;
14167;SDS011;7163;50.626;12.922;2024-03-08T10:01:53;29.10;;;17.90;;
14167;SDS011;7163;50.626;12.922;2024-03-08T10:07:00;31.60;;;18.83;;
14167;SDS011;7163;50.626;12.922;2024-03-08T10:12:01;30.90;;;17.80;;
14167;SDS011;7163;50.626;12.922;2024-03-08T10:17:03;29.27;;;17.83;;
14167;SDS011;7163;50.626;12.922;2024-03-08T10:22:03;30.33;;;17.40;;
14167;SDS011;7163;50.626;12.922;2024-03-08T10:27:04;32.93;;;18.53;;
14167;SDS011;7163;50.626;12.922;2024-03-08T10:32:06;29.20;;;17.53;;
14167;SDS011;7163;50.626;12.922;2024-03-08T10:37:08;27.07;;;17.27;;
14167;SDS011;7163;50.626;12.922;2024-03-08T10:42:14;24.77;;;16.30;;
14167;SDS011;7163;50.626;12.922;2024-03-08T10:47:19;24.60;;;17.43;;
14167;SDS011;7163;50.626;12.922;2024-03-08T10:52:22;28.53;;;17.83;;
14167;SDS011;7163;50.626;12.922;2024-03-08T10:57:23;29.17;;;17.63;;
14167;SDS011;7163;50.626;12.922;2024-03-08T11:02:24;26.25;;;16.80;;
14167;SDS011;7163;50.626;12.922;2024-03-08T11:07:30;29.97;;;17.57;;
14167;SDS011;7163;50.626;12.922;2024-03-08T11:12:37;26.50;;;17.93;;
14167;SDS011;7163;50.626;12.922;2024-03-08T11:22:39;26.65;;;16.42;;
14167;SDS011;7163;50.626;12.922;2024-03-08T11:27:50;28.70;;;18.13;;
14167;SDS011;7163;50.626;12.922;2024-03-08T11:32:56;26.63;;;18.52;;
14167;SDS011;7163;50.626;12.922;2024-03-08T11:38:01;28.70;;;16.92;;
14167;SDS011;7163;50.626;12.922;2024-03-08T11:43:02;32.22;;;21.52;;
14167;SDS011;7163;50.626;12.922;2024-03-08T11:48:07;28.10;;;19.02;;
14167;SDS011;7163;50.626;12.922;2024-03-08T11:53:07;30.67;;;19.73;;
14167;SDS011;7163;50.626;12.922;2024-03-08T11:58:08;26.27;;;17.48;;
14167;SDS011;7163;50.626;12.922;2024-03-08T12:03:11;31.58;;;18.60;;
14167;SDS011;7163;50.626;12.922;2024-03-08T12:08:12;28.98;;;20.70;;
14167;SDS011;7163;50.626;12.922;2024-03-08T12:13:13;29.92;;;20.25;;
14167;SDS011;7163;50.626;12.922;2024-03-08T12:18:14;33.70;;;22.67;;
14167;SDS011;7163;50.626;12.922;2024-03-08T12:23:15;31.08;;;22.00;;
14167;SDS011;7163;50.626;12.922;2024-03-08T12:28:18;31.77;;;21.50;;
14167;SDS011;7163;50.626;12.922;2024-03-08T12:33:22;31.10;;;20.27;;
14167;SDS011;7163;50.626;12.922;2024-03-08T12:38:22;31.90;;;20.60;;
14167;SDS011;7163;50.626;12.922;2024-03-08T12:43:25;32.47;;;22.27;;
14167;SDS011;7163;50.626;12.922;2024-03-08T12:48:25;28.50;;;20.90;;
14167;SDS011;7163;50.626;12.922;2024-03-08T12:53:26;30.85;;;21.67;;
14167;SDS011;7163;50.626;12.922;2024-03-08T13:03:39;36.00;;;21.75;;
14167;SDS011;7163;50.626;12.922;2024-03-08T13:08:40;33.75;;;23.63;;
14167;SDS011;7163;50.626;12.922;2024-03-08T13:13:41;35.20;;;23.10;;
14167;SDS011;7163;50.626;12.922;2024-03-08T13:18:45;35.03;;;23.60;;
14167;SDS011;7163;50.626;12.922;2024-03-08T13:28:55;35.40;;;23.57;;
14167;SDS011;7163;50.626;12.922;2024-03-08T13:33:56;32.90;;;22.33;;
14167;SDS011;7163;50.626;12.922;2024-03-08T13:39:00;35.57;;;22.70;;
14167;SDS011;7163;50.626;12.922;2024-03-08T13:44:00;35.47;;;23.20;;
14167;SDS011;7163;50.626;12.922;2024-03-08T13:49:04;38.27;;;24.20;;
14167;SDS011;7163;50.626;12.922;2024-03-08T13:54:11;36.73;;;22.73;;
14167;SDS011;7163;50.626;12.922;2024-03-08T13:59:11;34.63;;;21.03;;
14167;SDS011;7163;50.626;12.922;2024-03-08T15:01:03;36.80;;;22.40;;
14167;SDS011;7163;50.626;12.922;2024-03-08T15:11:17;31.77;;;21.30;;
14167;SDS011;7163;50.626;12.922;2024-03-08T15:16:21;31.90;;;21.83;;
14167;SDS011;7163;50.626;12.922;2024-03-08T15:21:24;31.80;;;21.93;;
14167;SDS011;7163;50.626;12.922;2024-03-08T15:26:25;36.20;;;21.27;;
14167;SDS011;7163;50.626;12.922;2024-03-08T15:31:26;35.17;;;20.40;;
14167;SDS011;7163;50.626;12.922;2024-03-08T15:36:27;34.00;;;19.87;;
14167;SDS011;7163;50.626;12.922;2024-03-08T15:41:35;34.70;;;20.87;;
14167;SDS011;7163;50.626;12.922;2024-03-08T15:46:36;34.53;;;20.93;;
14167;SDS011;7163;50.626;12.922;2024-03-08T15:51:36;30.30;;;19.70;;
14167;SDS011;7163;50.626;12.922;2024-03-08T15:56:39;30.20;;;20.10;;
14167;SDS011;7163;50.626;12.922;2024-03-08T16:01:40;32.57;;;22.43;;
14167;SDS011;7163;50.626;12.922;2024-03-08T16:06:40;35.60;;;20.70;;
14167;SDS011;7163;50.626;12.922;2024-03-08T16:11:41;37.70;;;19.93;;
14167;SDS011;7163;50.626;12.922;2024-03-08T16:16:41;35.93;;;21.53;;
14167;SDS011;7163;50.626;12.922;2024-03-08T16:21:42;31.97;;;18.90;;
14167;SDS011;7163;50.626;12.922;2024-03-08T16:26:43;32.87;;;20.10;;
14167;SDS011;7163;50.626;12.922;2024-03-08T16:31:45;35.97;;;19.80;;
14167;SDS011;7163;50.626;12.922;2024-03-08T16:36:45;39.73;;;19.23;;
14167;SDS011;7163;50.626;12.922;2024-03-08T16:41:46;35.13;;;20.17;;
14167;SDS011;7163;50.626;12.922;2024-03-08T16:46:49;35.33;;;20.33;;
14167;SDS011;7163;50.626;12.922;2024-03-08T16:51:49;39.67;;;20.70;;
14167;SDS011;7163;50.626;12.922;2024-03-08T16:56:52;33.20;;;19.90;;
14167;SDS011;7163;50.626;12.922;2024-03-08T17:01:53;34.43;;;19.47;;
14167;SDS011;7163;50.626;12.922;2024-03-08T17:17:38;34.30;;;19.40;;
14167;SDS011;7163;50.626;12.922;2024-03-08T17:22:40;28.77;;;16.57;;
14167;SDS011;7163;50.626;12.922;2024-03-08T17:27:42;26.00;;;16.33;;
14167;SDS011;7163;50.626;12.922;2024-03-08T17:32:47;25.73;;;15.20;;
14167;SDS011;7163;50.626;12.922;2024-03-08T17:37:49;26.87;;;15.23;;
14167;SDS011;7163;50.626;12.922;2024-03-08T17:42:56;27.23;;;15.23;;
14167;SDS011;7163;50.626;12.922;2024-03-08T17:47:59;24.43;;;14.53;;
14167;SDS011;7163;50.626;12.922;2024-03-08T17:53:00;24.67;;;13.47;;
14167;SDS011;7163;50.626;12.922;2024-03-08T17:58:03;20.77;;;12.87;;
14167;SDS011;7163;50.626;12.922;2024-03-08T18:03:05;23.03;;;12.70;;
14167;SDS011;7163;50.626;12.922;2024-03-08T18:08:08;30.10;;;14.30;;
14167;SDS011;7163;50.626;12.922;2024-03-08T18:13:09;22.77;;;12.63;;
14167;SDS011;7163;50.626;12.922;2024-03-08T18:18:12;23.93;;;12.97;;
14167;SDS011;7163;50.626;12.922;2024-03-08T18:23:13;24.47;;;13.70;;
14167;SDS011;7163;50.626;12.922;2024-03-08T18:28:14;23.70;;;14.57;;
14167;SDS011;7163;50.626;12.922;2024-03-08T18:33:17;23.10;;;13.73;;
14167;SDS011;7163;50.626;12.922;2024-03-08T18:38:17;26.73;;;14.83;;
14167;SDS011;7163;50.626;12.922;2024-03-08T18:43:18;26.47;;;15.10;;
14167;SDS011;7163;50.626;12.922;2024-03-08T18:48:26;28.00;;;15.27;;
14167;SDS011;7163;50.626;12.922;2024-03-08T18:53:27;28.20;;;15.10;;
14167;SDS011;7163;50.626;12.922;2024-03-08T18:58:28;26.60;;;14.80;;
14167;SDS011;7163;50.626;12.922;2024-03-08T19:03:31;26.53;;;14.20;;
14167;SDS011;7163;50.626;12.922;2024-03-08T19:08:33;30.77;;;15.53;;
14167;SDS011;7163;50.626;12.922;2024-03-08T19:13:33;28.97;;;15.00;;
14167;SDS011;7163;50.626;12.922;2024-03-08T19:18:36;27.50;;;14.83;;
14167;SDS011;7163;50.626;12.922;2024-03-08T19:23:37;29.67;;;16.15;;
14167;SDS011;7163;50.626;12.922;2024-03-08T19:28:37;26.60;;;16.00;;
14167;SDS011;7163;50.626;12.922;2024-03-08T19:33:39;29.03;;;15.23;;
14167;SDS011;7163;50.626;12.922;2024-03-08T19:38:39;31.30;;;16.40;;
14167;SDS011;7163;50.626;12.922;2024-03-08T19:43:40;30.17;;;15.90;;
14167;SDS011;7163;50.626;12.922;2024-03-08T19:48:41;29.93;;;16.90;;
14167;SDS011;7163;50.626;12.922;2024-03-08T19:53:43;28.97;;;16.23;;
14167;SDS011;7163;50.626;12.922;2024-03-08T19:58:43;32.87;;;16.87;;
14167;SDS011;7163;50.626;12.922;2024-03-08T20:03:43;32.03;;;16.63;;
14167;SDS011;7163;50.626;12.922;2024-03-08T20:08:44;30.60;;;16.90;;
14167;SDS011;7163;50.626;12.922;2024-03-08T20:13:45;30.17;;;16.40;;
14167;SDS011;7163;50.626;12.922;2024-03-08T20:18:47;29.40;;;16.97;;
14167;SDS011;7163;50.626;12.922;2024-03-08T20:23:47;35.33;;;19.43;;
14167;SDS011;7163;50.626;12.922;2024-03-08T20:28:49;38.73;;;18.80;;
14167;SDS011;7163;50.626;12.922;2024-03-08T20:33:51;35.10;;;19.33;;
14167;SDS011;7163;50.626;12.922;2024-03-08T20:38:51;35.70;;;20.00;;
14167;SDS011;7163;50.626;12.922;2024-03-08T20:43:55;40.70;;;21.17;;
14167;SDS011;7163;50.626;12.922;2024-03-08T20:48:55;41.37;;;20.87;;
14167;SDS011;7163;50.626;12.922;2024-03-08T20:53:56;37.03;;;20.60;;
14167;SDS011;7163;50.626;12.922;2024-03-08T20:58:56;42.30;;;24.50;;
14167;SDS011;7163;50.626;12.922;2024-03-08T21:03:56;104.47;;;49.00;;
14167;SDS011;7163;50.626;12.922;2024-03-08T21:08:57;57.40;;;31.90;;
14167;SDS011;7163;50.626;12.922;2024-03-08T21:13:57;39.70;;;22.07;;
14167;SDS011;7163;50.626;12.922;2024-03-08T21:18:58;38.87;;;21.23;;
14167;SDS011;7163;50.626;12.922;2024-03-08T21:23:58;54.13;;;27.90;;
14167;SDS011;7163;50.626;12.922;2024-03-08T21:28:59;49.67;;;27.80;;
14167;SDS011;7163;50.626;12.922;2024-03-08T21:34:00;38.43;;;22.67;;
14167;SDS011;7163;50.626;12.922;2024-03-08T21:39:00;41.33;;;22.53;;
14167;SDS011;7163;50.626;12.922;2024-03-08T21:44:03;36.43;;;19.53;;
14167;SDS011;7163;50.626;12.922;2024-03-08T21:49:03;36.60;;;18.27;;
14167;SDS011;7163;50.626;12.922;2024-03-08T21:54:04;34.27;;;18.83;;
14167;SDS011;7163;50.626;12.922;2024-03-08T21:59:04;31.90;;;17.90;;
14167;SDS011;7163;50.626;12.922;2024-03-08T22:04:05;29.77;;;16.27;;
14167;SDS011;7163;50.626;12.922;2024-03-08T22:09:05;30.27;;;17.00;;
14167;SDS011;7163;50.626;12.922;2024-03-08T22:14:10;28.03;;;16.23;;
14167;SDS011;7163;50.626;12.922;2024-03-08T22:19:11;28.67;;;15.80;;
14167;SDS011;7163;50.626;12.922;2024-03-08T22:24:13;31.33;;;16.07;;
14167;SDS011;7163;50.626;12.922;2024-03-08T22:29:17;28.40;;;16.23;;
14167;SDS011;7163;50.626;12.922;2024-03-08T22:34:18;28.93;;;14.97;;
14167;SDS011;7163;50.626;12.922;2024-03-08T22:39:18;25.37;;;14.87;;
14167;SDS011;7163;50.626;12.922;2024-03-08T22:44:18;25.52;;;14.32;;
14167;SDS011;7163;50.626;12.922;2024-03-08T22:49:18;27.60;;;14.53;;
14167;SDS011;7163;50.626;12.922;2024-03-08T22:54:19;26.13;;;13.32;;
14167;SDS011;7163;50.626;12.922;2024-03-08T22:59:23;25.10;;;13.93;;
14167;SDS011;7163;50.626;12.922;2024-03-08T23:04:24;24.27;;;13.70;;
14167;SDS011;7163;50.626;12.922;2024-03-08T23:09:25;24.77;;;14.00;;
14167;SDS011;7163;50.626;12.922;2024-03-08T23:14:26;23.20;;;14.03;;
14167;SDS011;7163;50.626;12.922;2024-03-08T23:19:26;23.47;;;13.57;;
14167;SDS011;7163;50.626;12.922;2024-03-08T23:24:38;29.03;;;15.13;;
14167;SDS011;7163;50.626;12.922;2024-03-08T23:29:38;24.57;;;14.73;;
14167;SDS011;7163;50.626;12.922;2024-03-08T23:34:39;23.20;;;12.83;;
14167;SDS011;7163;50.626;12.922;2024-03-08T23:39:39;27.13;;;15.27;;
14167;SDS011;7163;50.626;12.922;2024-03-08T23:44:40;28.60;;;16.07;;
14167;SDS011;7163;50.626;12.922;2024-03-08T23:49:40;27.48;;;15.02;;
14167;SDS011;7163;50.626;12.922;2024-03-08T23:54:40;29.97;;;15.87;;
14167;SDS011;7163;50.626;12.922;2024-03-08T23:59:41;26.13;;;15.07;;
